HONEYWELL INTERNATIONAL INC

Pages

HONEYWELL INTERNATIONAL INC

$HON

Search Table
Pages

Trade Date Insider Title Buy or Sell Quantity Security Type Price Proceeds Transaction Conviction Position Quantity Position Value Positon Conviction SEC Link Nature of Ownership
2020-04-22Gregory P LewisSrVP & Chief Financial OfficerBuy4,121Common Stock$0.00$0.00  -19,343$0.00  0.28     [Very Low]Form 4-
2020-04-22Gregory P LewisSrVP & Chief Financial OfficerSell1,880Common Stock$133.23$250,472.40  0.03     [ Very Low ]17,463$2,326,595.49  0.25     [Very Low]Form 4-
2020-04-24Jaime Chico Pardo-Buy429Common Stock$134.30-$57,614.70  -932$125,167.60  -Form 4-
2020-04-24Clive R Hollick-Buy429Common Stock$134.30-$57,614.70  -17,493$2,349,309.90  0.25     [Very Low]Form 4-
2020-04-24William S Ayer-Buy429Common Stock$134.30-$57,614.70  -4,983$669,216.90  0.07     [Very Low]Form 4-
2020-04-24D Scott Davis-Buy429Common Stock$134.30-$57,614.70  -22,804$3,062,577.20  0.32     [Very Low]Form 4-
2020-04-24Kevin Burke-Buy429Common Stock$134.30-$57,614.70  -17,974$2,413,908.20  0.26     [Very Low]Form 4-
2020-04-24George Paz-Buy429Common Stock$134.30-$57,614.70  -15,610$2,096,423.00  0.22     [Very Low]Form 4-
2020-04-24Robin L Washington-Buy429Common Stock$134.30-$57,614.70  -5,995$805,128.50  0.09     [Very Low]Form 4-
2020-04-24Linnet F Deily-Buy429Common Stock$134.30-$57,614.70  -6,344$851,999.20  0.09     [Very Low]Form 4-
2020-04-24Judd A. Gregg-Buy429Common Stock$134.30-$57,614.70  -12,122$1,627,984.60  0.17     [Very Low]Form 4-
2020-04-24Grace Lieblein-Buy429Common Stock$134.30-$57,614.70  -6,016$807,948.80  0.09     [Very Low]Form 4-
2020-05-15Kevin Burke-Buy1,313Common Stock$57.58-$75,602.54  0.02     [ Very Low ]19,287$1,110,545.46  0.27     [Very Low]Form 4-
2020-05-15Kevin Burke-Sell871Common Stock$125.37$109,197.27  -18,416$2,308,813.92  0.26     [Very Low]Form 4-
2020-07-26Anne T MaddenSrVP, and General CounselBuy4,122Common Stock$0.00$0.00  -19,000$0.00  0.27     [Very Low]Form 4-
2020-07-26Anne T MaddenSrVP, and General CounselSell1,843Common Stock$150.54$277,445.22  0.03     [ Very Low ]17,157$2,582,814.78  0.24     [Very Low]Form 4-
2020-07-26Michael R MadsenPresident and CEO, AerospaceBuy2,475Common Stock$0.00$0.00  -28,720$0.00  0.41     [Very Low]Form 4-
2020-07-26Michael R MadsenPresident and CEO, AerospaceSell1,099Common Stock$150.54$165,443.46  0.02     [ Very Low ]27,621$4,158,065.34  0.39     [Very Low]Form 4-
2020-07-27Karen MattimoreSrVP, HR and CommunicationsBuy1,615Common Stock$0.00$0.00  -1,622$0.00  0.02     [Very Low]Form 4-
2020-07-27Karen MattimoreSrVP, HR and CommunicationsSell719Common Stock$149.44$107,447.36  -903$134,944.32  -Form 4-
2020-07-29Anne T MaddenSrVP and General CounselBuy21,007Common Stock$57.00-$1,197,399.00  0.30     [ Average ]38,164$2,175,348.00  0.54     [Very Low]Form 4-
2020-07-29Anne T MaddenSrVP and General CounselSell13,750Common Stock$152.72$2,099,900.00  0.20     [ Low ]24,414$3,728,506.08  0.35     [Very Low]Form 4-
2020-07-31John F. WaldronPresident & CEO, SPSBuy3,075Common Stock$0.00$0.00  -28,075$0.00  0.40     [Very Low]Form 4-
2020-07-31John F. WaldronPresident & CEO, SPSSell1,428Common Stock$148.24$211,686.72  0.02     [ Very Low ]26,647$3,950,151.28  0.38     [Very Low]Form 4-
2020-07-31Gregory P LewisSrVP & Chief Financial OfficerBuy1,922Common Stock$0.00$0.00  -19,461$0.00  0.28     [Very Low]Form 4-
2020-07-31Gregory P LewisSrVP & Chief Financial OfficerSell860Common Stock$148.24$127,486.40  -18,601$2,757,412.24  0.27     [Very Low]Form 4-
2020-07-31Karen MattimoreSrVP, HR and CommunicationsBuy1,538Common Stock$0.00$0.00  -2,441$0.00  0.03     [Very Low]Form 4-
2020-07-31Karen MattimoreSrVP, HR and CommunicationsSell684Common Stock$148.24$101,396.16  -1,757$260,457.68  0.03     [Very Low]Form 4-
2020-08-04Gregory P LewisSrVP & Chief Financial OfficerBuy3,675Common Stock$54.32-$199,626.00  0.05     [ Very Low ]22,276$1,210,032.32  0.32     [Very Low]Form 4-
2020-08-04Gregory P LewisSrVP & Chief Financial OfficerSell2,400Common Stock$147.65$354,360.00  0.03     [ Very Low ]19,876$2,934,691.40  0.28     [Very Low]Form 4-
2020-08-14Kevin Burke-Buy1,312Common Stock$57.58-$75,544.96  0.02     [ Very Low ]19,767$1,138,183.86  0.28     [Very Low]Form 4-
2020-08-14Kevin Burke-Sell788Common Stock$158.00$124,504.00  -18,979$2,998,682.00  0.27     [Very Low]Form 4-
2020-09-28Darius AdamczykChairman and CEOBuy97,162Common Stock$57.00-$5,538,234.00  1.38     [ High ]200,677$11,438,589.00  2.86     [Low]Form 4-
2020-09-28Darius AdamczykChairman and CEOSell62,612Common Stock$164.42$10,294,665.04  0.89     [ High ]138,065$22,700,647.30  1.97     [Low]Form 4-
2020-09-28Darius AdamczykChairman and CEOSell20,000Common Stock$163.95$3,279,000.00  0.28     [ Low ]118,065$19,356,756.75  1.68     [Low]Form 4-
2020-11-05Rajeev GautamPresident & CEO, PMTSell29,606Common Stock$182.35$5,398,654.10  0.42     [ Average ]7,234$1,319,119.90  0.10     [Very Low]Form 4Held in a trust
2020-11-09Vimal KapurPresident & CEO, HBTBuy7,352Common Stock$66.43-$488,393.36  0.10     [ Low ]28,288$1,879,171.84  0.40     [Very Low]Form 4-
2020-11-09Vimal KapurPresident & CEO, HBTSell4,707Common Stock$194.38$914,946.66  0.07     [ Very Low ]23,581$4,583,674.78  0.34     [Very Low]Form 4-
2020-11-09Vimal KapurPresident & CEO, HBTSell7,500Common Stock$194.38$1,457,850.00  0.11     [ Low ]16,081$3,125,824.78  0.23     [Very Low]Form 4-
2020-11-11D Scott Davis-Buy3,072Common Stock$56.08-$172,277.76  0.04     [ Very Low ]25,912$1,453,144.96  0.37     [Very Low]Form 4-
2020-11-11D Scott Davis-Sell870Common Stock$198.86$173,008.20  -25,042$4,979,852.12  0.36     [Very Low]Form 4-
2020-11-11D Scott Davis-Buy3,152Common Stock$70.90-$223,476.80  0.04     [ Very Low ]28,194$1,998,954.60  0.40     [Very Low]Form 4-
2020-11-11D Scott Davis-Sell1,128Common Stock$198.86$224,314.08  0.02     [ Very Low ]27,066$5,382,344.76  0.39     [Very Low]Form 4-
2020-11-11D Scott Davis-Sell2,111Common Stock$198.86$419,793.46  0.03     [ Very Low ]24,955$4,962,551.30  0.36     [Very Low]Form 4-
2020-11-16Kevin Burke-Buy1,312Common Stock$57.58-$75,544.96  0.02     [ Very Low ]20,330$1,170,601.40  0.29     [Very Low]Form 4-
2020-11-16Kevin Burke-Sell731Common Stock$206.30$150,805.30  -19,599$4,043,273.70  0.28     [Very Low]Form 4-
2020-11-16Linnet F Deily-Buy2,568Common Stock$87.96-$225,881.28  0.04     [ Very Low ]8,934$785,834.64  0.13     [Very Low]Form 4-
2020-11-16Linnet F Deily-Sell1,636Common Stock$208.33$340,827.88  0.02     [ Very Low ]7,298$1,520,392.34  0.10     [Very Low]Form 4-
2020-11-16Linnet F Deily-Buy3,164Common Stock$97.92-$309,818.88  0.05     [ Very Low ]10,462$1,024,439.04  0.15     [Very Low]Form 4-
2020-11-16Linnet F Deily-Sell2,110Common Stock$208.33$439,576.30  0.03     [ Very Low ]8,352$1,739,972.16  0.12     [Very Low]Form 4-
2020-11-19Linnet F Deily-Sell696Common Stock$0.00$0.00  -7,656$0.00  0.11     [Very Low]Form 4-
2020-12-06John F. WaldronPresident & CEO, SPSBuy2,465Common Stock$0.00$0.00  -29,257$0.00  0.42     [Very Low]Form 4-
2020-12-06John F. WaldronPresident & CEO, SPSSell1,103Common Stock$210.86$232,578.58  0.02     [ Very Low ]28,154$5,936,552.44  0.40     [Very Low]Form 4-
2021-02-11Darius AdamczykChairman and CEOSell250Common Stock$0.00$0.00  -117,815$0.00  1.68     [Low]Form 4-
2021-02-19John F. WaldronPresident & CEO, SPSSell160Common Stock$0.00$0.00  -28,112$0.00  0.40     [Very Low]Form 4-
2021-02-22Karen MattimoreSrVP, HR and CommunicationsBuy5,119Common Stock$66.43-$340,055.17  0.07     [ Very Low ]6,893$457,901.99  0.10     [Very Low]Form 4-
2021-02-22Karen MattimoreSrVP, HR and CommunicationsSell3,240Common Stock$202.91$657,428.40  0.05     [ Very Low ]3,653$741,230.23  0.05     [Very Low]Form 4-
2021-02-23Linnet F Deily-Sell165Common Stock$0.00$0.00  -7,500$0.00  0.11     [Very Low]Form 4-
2021-02-25Kevin Burke-Buy768Common Stock$56.08-$43,069.44  -20,398$1,143,919.84  0.29     [Very Low]Form 4-
2021-02-25Kevin Burke-Sell418Common Stock$209.95$87,759.10  -19,980$4,194,801.00  0.29     [Very Low]Form 4-
2021-02-26George Paz-Buy5,250Common Stock$57.58-$302,295.00  0.08     [ Very Low ]20,866$1,201,464.28  0.30     [Very Low]Form 4-
2021-02-26George Paz-Sell1,485Common Stock$204.15$303,162.75  0.02     [ Very Low ]19,381$3,956,631.15  0.28     [Very Low]Form 4-
2021-03-01Judd A. Gregg-Buy3,072Common Stock$56.08-$172,277.76  0.04     [ Very Low ]15,338$860,155.04  0.22     [Very Low]Form 4-
2021-03-01Judd A. Gregg-Sell837Common Stock$206.70$173,007.90  -14,501$2,997,356.70  0.21     [Very Low]Form 4-
2021-02-26Darius AdamczykChairman and CEOBuy4,376Common Stock$0.00$0.00  -122,190$0.00  1.76     [Low]Form 4-
2021-02-26Darius AdamczykChairman and CEOSell1,957Common Stock$203.94$399,110.58  0.03     [ Very Low ]120,233$24,520,318.02  1.73     [Low]Form 4-
2021-02-27Darius AdamczykChairman and CEOBuy34,469Common Stock$0.00$0.00  -154,692$0.00  2.22     [Low]Form 4-
2021-02-27Darius AdamczykChairman and CEOSell15,408Common Stock$204.93$3,157,561.44  0.22     [ Low ]139,294$28,545,519.42  2.00     [Low]Form 4-
2021-02-26Rajeev GautamPresident & CEO, PMTBuy1,333Common Stock$0.00$0.00  -8,567$0.00  0.12     [Very Low]Form 4-
2021-02-26Rajeev GautamPresident & CEO, PMTSell683Common Stock$203.94$139,291.02  -7,884$1,607,862.96  0.11     [Very Low]Form 4-
2021-02-27Rajeev GautamPresident & CEO, PMTBuy6,960Common Stock$0.00$0.00  -14,844$0.00  0.21     [Very Low]Form 4-
2021-02-27Rajeev GautamPresident & CEO, PMTSell3,561Common Stock$204.93$729,755.73  0.05     [ Very Low ]11,283$2,312,225.19  0.16     [Very Low]Form 4-
2021-02-26John F. WaldronPresident & CEO, SPSBuy1,059Common Stock$0.00$0.00  -29,171$0.00  0.42     [Very Low]Form 4-
2021-02-26John F. WaldronPresident & CEO, SPSSell474Common Stock$203.94$96,667.56  -28,697$5,852,466.18  0.41     [Very Low]Form 4-
2021-02-27John F. WaldronPresident & CEO, SPSBuy6,182Common Stock$0.00$0.00  -34,879$0.00  0.50     [Very Low]Form 4-
2021-02-27John F. WaldronPresident & CEO, SPSSell2,764Common Stock$204.93$566,426.52  0.04     [ Very Low ]32,115$6,581,326.95  0.46     [Very Low]Form 4-
2021-02-27John F. WaldronPresident & CEO, SPSBuy7,107Common Stock$0.00$0.00  -39,222$0.00  0.56     [Very Low]Form 4-
2021-02-27John F. WaldronPresident & CEO, SPSSell3,177Common Stock$204.93$651,062.61  0.05     [ Very Low ]36,045$7,386,701.85  0.52     [Very Low]Form 4-
2021-02-26Anne T MaddenSrVP and General CounselBuy1,162Common Stock$0.00$0.00  -25,746$0.00  0.37     [Very Low]Form 4-
2021-02-26Anne T MaddenSrVP and General CounselSell520Common Stock$203.94$106,048.80  -25,226$5,144,590.44  0.36     [Very Low]Form 4-
2021-02-27Anne T MaddenSrVP and General CounselBuy7,867Common Stock$0.00$0.00  -33,093$0.00  0.48     [Very Low]Form 4-
2021-02-27Anne T MaddenSrVP and General CounselSell3,517Common Stock$204.93$720,738.81  0.05     [ Very Low ]29,576$6,061,009.68  0.43     [Very Low]Form 4-
2021-02-26Vimal KapurPresident & CEO, HBTBuy581Common Stock$0.00$0.00  -16,662$0.00  0.24     [Very Low]Form 4-
2021-02-26Vimal KapurPresident & CEO, HBTSell263Common Stock$203.94$53,636.22  -16,399$3,344,412.06  0.24     [Very Low]Form 4-
2021-02-27Vimal KapurPresident & CEO, HBTBuy2,608Common Stock$0.00$0.00  -19,007$0.00  0.27     [Very Low]Form 4-
2021-02-27Vimal KapurPresident & CEO, HBTSell1,177Common Stock$204.93$241,202.61  0.02     [ Very Low ]17,830$3,653,901.90  0.26     [Very Low]Form 4-
2019-07-02Vimal KapurPresident & CEO, HBTBuy13Common Stock$177.15-$2,302.95  -17,843$3,160,887.45  0.26     [Very Low]Form 4-
2019-08-07Vimal KapurPresident & CEO, HBTBuy5Common Stock$162.22-$811.10  -17,848$2,895,302.56  0.26     [Very Low]Form 4-
2019-10-29Vimal KapurPresident & CEO, HBTSell2Common Stock$172.82$345.64  -17,846$3,084,145.72  0.26     [Very Low]Form 4-
2021-02-26Gregory P LewisSrVP & Chief Financial OfficerBuy1,162Common Stock$0.00$0.00  -21,185$0.00  0.30     [Very Low]Form 4-
2021-02-26Gregory P LewisSrVP & Chief Financial OfficerSell520Common Stock$203.94$106,048.80  -20,665$4,214,420.10  0.30     [Very Low]Form 4-
2021-02-27Gregory P LewisSrVP & Chief Financial OfficerBuy3,945Common Stock$0.00$0.00  -24,610$0.00  0.35     [Very Low]Form 4-
2021-02-27Gregory P LewisSrVP & Chief Financial OfficerSell1,764Common Stock$204.93$361,496.52  0.03     [ Very Low ]22,846$4,681,830.78  0.33     [Very Low]Form 4-
2021-02-26Que DallaraPresident & CEO, HCEBuy888Common Stock$0.00$0.00  -11,543$0.00  0.17     [Very Low]Form 4-
2021-02-26Que DallaraPresident & CEO, HCESell401Common Stock$203.94$81,779.94  -11,142$2,272,299.48  0.16     [Very Low]Form 4-
2021-02-27Que DallaraPresident & CEO, HCEBuy5,480Common Stock$0.00$0.00  -16,642$0.00  0.24     [Very Low]Form 4-
2021-02-27Que DallaraPresident & CEO, HCESell2,472Common Stock$204.93$506,586.96  0.04     [ Very Low ]14,150$2,899,759.50  0.20     [Very Low]Form 4-
2021-02-27Michael R MadsenPresident & CEO, AEROBuy3,635Common Stock$0.00$0.00  -31,486$0.00  0.45     [Very Low]Form 4-
2021-02-27Michael R MadsenPresident & CEO, AEROSell1,613Common Stock$204.93$330,552.09  0.02     [ Very Low ]29,873$6,121,873.89  0.43     [Very Low]Form 4-
2021-02-27Karen MattimoreSrVP, HR and CommunicationsBuy1,901Common Stock$0.00$0.00  -5,554$0.00  0.08     [Very Low]Form 4-
2021-02-27Karen MattimoreSrVP, HR and CommunicationsSell851Common Stock$204.93$174,395.43  -4,703$963,785.79  0.07     [Very Low]Form 4-
2021-04-23Clive R Hollick-Buy372Common Stock$224.59-$83,547.48  -17,871$4,013,647.89  0.26     [Very Low]Form 4-
2021-04-23William S Ayer-Buy372Common Stock$224.59-$83,547.48  -5,454$1,224,913.86  0.08     [Very Low]Form 4-
2021-04-23Duncan Angove-Buy372Common Stock$224.59-$83,547.48  -372$83,547.48  -Form 4-
2021-04-23D Scott Davis-Buy372Common Stock$224.59-$83,547.48  -25,327$5,688,190.93  0.36     [Very Low]Form 4-
2021-04-23Kevin Burke-Buy372Common Stock$224.59-$83,547.48  -20,383$4,577,817.97  0.29     [Very Low]Form 4-
2021-04-23George Paz-Buy372Common Stock$224.59-$83,547.48  -19,756$4,437,000.04  0.28     [Very Low]Form 4-
2021-04-23Robin L Washington-Buy372Common Stock$224.59-$83,547.48  -6,487$1,456,915.33  0.09     [Very Low]Form 4-
2021-04-23Linnet F Deily-Buy372Common Stock$224.59-$83,547.48  -7,881$1,769,993.79  0.11     [Very Low]Form 4-
2021-04-23Judd A. Gregg-Buy372Common Stock$224.59-$83,547.48  -14,904$3,347,289.36  0.21     [Very Low]Form 4-
2021-04-23Grace Lieblein-Buy372Common Stock$224.59-$83,547.48  -6,507$1,461,407.13  0.09     [Very Low]Form 4-
2021-04-27Clive R Hollick-Buy479Common Stock$222.43-$106,543.97  -18,350$4,081,590.50  0.26     [Very Low]Form 4-
2021-04-27William S Ayer-Buy479Common Stock$222.43-$106,543.97  -5,933$1,319,677.19  0.09     [Very Low]Form 4-
2021-04-27Duncan Angove-Buy479Common Stock$222.43-$106,543.97  -851$189,287.93  -Form 4-
2021-04-27D Scott Davis-Buy479Common Stock$222.43-$106,543.97  -25,806$5,740,028.58  0.37     [Very Low]Form 4-
2021-04-27Kevin Burke-Buy479Common Stock$222.43-$106,543.97  -20,862$4,640,334.66  0.30     [Very Low]Form 4-
2021-04-27George Paz-Buy479Common Stock$222.43-$106,543.97  -20,235$4,500,871.05  0.29     [Very Low]Form 4-
2021-04-27Robin L Washington-Buy479Common Stock$222.43-$106,543.97  -6,966$1,549,447.38  0.10     [Very Low]Form 4-
2021-04-27Linnet F Deily-Buy479Common Stock$222.43-$106,543.97  -8,360$1,859,514.80  0.12     [Very Low]Form 4-
2021-04-27Judd A. Gregg-Buy479Common Stock$222.43-$106,543.97  -15,383$3,421,640.69  0.22     [Very Low]Form 4-
2021-04-27Grace Lieblein-Buy479Common Stock$222.43-$106,543.97  -6,986$1,553,895.98  0.10     [Very Low]Form 4-
2021-04-27Raymond T Odierno-Buy479Common Stock$222.43-$106,543.97  -479$106,543.97  -Form 4-
2021-04-27Deborah Flint-Buy479Common Stock$222.43-$106,543.97  -479$106,543.97  -Form 4-
2021-04-29Anne T MaddenSrVP and General CounselBuy21,007Common Stock$66.43-$1,395,495.01  0.30     [ Average ]50,658$3,365,210.94  0.73     [Very Low]Form 4-
2021-04-29Anne T MaddenSrVP and General CounselSell12,861Common Stock$223.22$2,870,832.42  0.19     [ Low ]37,797$8,437,046.34  0.54     [Very Low]Form 4-
2021-04-29Anne T MaddenSrVP and General CounselSell8,885Common Stock$223.22$1,983,309.70  0.13     [ Low ]28,912$6,453,736.64  0.42     [Very Low]Form 4-